Middle Spring, Pennsylvania
Current Conditions -  °F | °C
As of 6:53 AM on Thursday 29 Jan 2015 (Local Time) from KRYT Reporting Station
Clear Clear  
Wind Chill: 14°   Ceiling: Unl
Heat Index: 14°   Visibility: 10mi
Dew Point:   Wind: 3mph
Humidity: 67%   Direction: 230°SW
Pressure: 30.26"   Gusts: NA
Location:  40.0414°N, 77.4967°W
Report Text: KRYT 291153Z AUTO 23003KT 10SM CLR M10/M15 A3026 RMK AO2 SLP272 T11001150 11067 21106 55007 $
Loading
Personal Weather Stations






























Interactive Weather Map New forecast layout! Learn more

10-Day Weather Forecast

Advertisements
Track Severe Weather on mobile